sensor_id;sensor_type;location;lat;lon;timestamp;pressure;altitude;pressure_sealevel;temperature
70819;BMP280;58439;51.046;13.692;2022-08-19T00:02:08;99358.94;;;22.25
70819;BMP280;58439;51.046;13.692;2022-08-19T00:04:35;99359.22;;;22.23
70819;BMP280;58439;51.046;13.692;2022-08-19T00:07:07;99361.78;;;22.14
70819;BMP280;58439;51.046;13.692;2022-08-19T00:09:34;99358.88;;;22.11
70819;BMP280;58439;51.046;13.692;2022-08-19T00:12:02;99362.88;;;22.13
70819;BMP280;58439;51.046;13.692;2022-08-19T00:14:30;99363.53;;;22.19
70819;BMP280;58439;51.046;13.692;2022-08-19T00:17:02;99373.44;;;22.18
70819;BMP280;58439;51.046;13.692;2022-08-19T00:19:30;99359.81;;;22.20
70819;BMP280;58439;51.046;13.692;2022-08-19T00:21:57;99366.88;;;22.11
70819;BMP280;58439;51.046;13.692;2022-08-19T00:24:25;99366.59;;;22.12
70819;BMP280;58439;51.046;13.692;2022-08-19T00:26:52;99376.47;;;22.12
70819;BMP280;58439;51.046;13.692;2022-08-19T00:29:21;99382.16;;;22.05
70819;BMP280;58439;51.046;13.692;2022-08-19T00:31:49;99382.47;;;22.04
70819;BMP280;58439;51.046;13.692;2022-08-19T00:34:17;99386.84;;;21.95
70819;BMP280;58439;51.046;13.692;2022-08-19T00:36:45;99390.88;;;21.92
70819;BMP280;58439;51.046;13.692;2022-08-19T00:39:13;99395.59;;;21.95
70819;BMP280;58439;51.046;13.692;2022-08-19T00:41:43;99396.56;;;22.04
70819;BMP280;58439;51.046;13.692;2022-08-19T00:44:17;99398.84;;;22.11
70819;BMP280;58439;51.046;13.692;2022-08-19T00:46:49;99395.19;;;22.07
70819;BMP280;58439;51.046;13.692;2022-08-19T00:49:51;99385.69;;;22.01
70819;BMP280;58439;51.046;13.692;2022-08-19T00:52:29;99384.41;;;21.98
70819;BMP280;58439;51.046;13.692;2022-08-19T00:54:59;99391.41;;;21.94
70819;BMP280;58439;51.046;13.692;2022-08-19T00:57:38;99387.41;;;21.92
70819;BMP280;58439;51.046;13.692;2022-08-19T01:00:12;99381.91;;;21.88
70819;BMP280;58439;51.046;13.692;2022-08-19T01:02:42;99385.84;;;21.91
70819;BMP280;58439;51.046;13.692;2022-08-19T01:05:17;99377.41;;;22.02
70819;BMP280;58439;51.046;13.692;2022-08-19T01:07:50;99376.13;;;22.00
70819;BMP280;58439;51.046;13.692;2022-08-19T01:10:24;99378.94;;;21.90
70819;BMP280;58439;51.046;13.692;2022-08-19T01:12:54;99377.94;;;21.85
70819;BMP280;58439;51.046;13.692;2022-08-19T01:15:30;99382.09;;;21.92
70819;BMP280;58439;51.046;13.692;2022-08-19T01:18:03;99384.06;;;21.86
70819;BMP280;58439;51.046;13.692;2022-08-19T01:20:31;99390.38;;;21.90
70819;BMP280;58439;51.046;13.692;2022-08-19T01:23:02;99393.34;;;21.89
70819;BMP280;58439;51.046;13.692;2022-08-19T01:28:25;99412.38;;;21.96
70819;BMP280;58439;51.046;13.692;2022-08-19T01:31:09;99406.78;;;21.97
70819;BMP280;58439;51.046;13.692;2022-08-19T01:33:38;99399.38;;;21.94
70819;BMP280;58439;51.046;13.692;2022-08-19T01:36:16;99402.03;;;21.94
70819;BMP280;58439;51.046;13.692;2022-08-19T01:38:48;99400.69;;;21.97
70819;BMP280;58439;51.046;13.692;2022-08-19T01:41:18;99401.69;;;22.01
70819;BMP280;58439;51.046;13.692;2022-08-19T01:43:45;99391.06;;;21.96
70819;BMP280;58439;51.046;13.692;2022-08-19T01:46:33;99389.06;;;21.87
70819;BMP280;58439;51.046;13.692;2022-08-19T01:49:02;99379.72;;;21.90
70819;BMP280;58439;51.046;13.692;2022-08-19T01:51:30;99391.72;;;21.87
70819;BMP280;58439;51.046;13.692;2022-08-19T01:54:08;99392.84;;;21.86
70819;BMP280;58439;51.046;13.692;2022-08-19T01:56:36;99396.78;;;21.89
70819;BMP280;58439;51.046;13.692;2022-08-19T01:59:08;99406.88;;;21.92
70819;BMP280;58439;51.046;13.692;2022-08-19T02:01:37;99398.88;;;21.92
70819;BMP280;58439;51.046;13.692;2022-08-19T02:04:04;99401.34;;;21.89
70819;BMP280;58439;51.046;13.692;2022-08-19T02:06:33;99396.50;;;21.91
70819;BMP280;58439;51.046;13.692;2022-08-19T02:09:01;99388.00;;;21.89
70819;BMP280;58439;51.046;13.692;2022-08-19T02:11:32;99370.38;;;21.93
70819;BMP280;58439;51.046;13.692;2022-08-19T02:14:04;99361.09;;;21.90
70819;BMP280;58439;51.046;13.692;2022-08-19T02:16:33;99354.09;;;21.94
70819;BMP280;58439;51.046;13.692;2022-08-19T02:19:00;99345.91;;;21.91
70819;BMP280;58439;51.046;13.692;2022-08-19T02:21:29;99372.81;;;21.89
70819;BMP280;58439;51.046;13.692;2022-08-19T02:23:57;99380.25;;;21.92
70819;BMP280;58439;51.046;13.692;2022-08-19T02:26:25;99400.81;;;21.86
70819;BMP280;58439;51.046;13.692;2022-08-19T02:28:54;99407.31;;;21.80
70819;BMP280;58439;51.046;13.692;2022-08-19T02:31:24;99406.22;;;21.81
70819;BMP280;58439;51.046;13.692;2022-08-19T02:33:53;99408.31;;;21.84
70819;BMP280;58439;51.046;13.692;2022-08-19T02:36:24;99399.72;;;21.87
70819;BMP280;58439;51.046;13.692;2022-08-19T02:38:53;99397.06;;;21.87
70819;BMP280;58439;51.046;13.692;2022-08-19T02:41:28;99399.81;;;21.82
70819;BMP280;58439;51.046;13.692;2022-08-19T02:44:00;99387.28;;;21.83
70819;BMP280;58439;51.046;13.692;2022-08-19T02:46:48;99390.97;;;21.87
70819;BMP280;58439;51.046;13.692;2022-08-19T02:49:18;99380.81;;;21.89
70819;BMP280;58439;51.046;13.692;2022-08-19T02:51:47;99383.75;;;21.87
70819;BMP280;58439;51.046;13.692;2022-08-19T02:54:15;99391.94;;;21.91
70819;BMP280;58439;51.046;13.692;2022-08-19T02:56:44;99396.28;;;21.87
70819;BMP280;58439;51.046;13.692;2022-08-19T02:59:12;99407.69;;;21.87
70819;BMP280;58439;51.046;13.692;2022-08-19T03:01:41;99405.66;;;21.84
70819;BMP280;58439;51.046;13.692;2022-08-19T03:04:12;99410.97;;;21.84
70819;BMP280;58439;51.046;13.692;2022-08-19T03:06:44;99404.78;;;21.89
70819;BMP280;58439;51.046;13.692;2022-08-19T03:09:12;99409.91;;;21.85
70819;BMP280;58439;51.046;13.692;2022-08-19T03:11:40;99407.81;;;21.82
70819;BMP280;58439;51.046;13.692;2022-08-19T03:14:11;99398.44;;;21.85
70819;BMP280;58439;51.046;13.692;2022-08-19T03:16:45;99396.56;;;21.85
70819;BMP280;58439;51.046;13.692;2022-08-19T03:19:16;99392.91;;;21.81
70819;BMP280;58439;51.046;13.692;2022-08-19T03:21:44;99394.78;;;21.81
70819;BMP280;58439;51.046;13.692;2022-08-19T03:24:13;99388.16;;;21.78
70819;BMP280;58439;51.046;13.692;2022-08-19T03:26:44;99392.97;;;21.76
70819;BMP280;58439;51.046;13.692;2022-08-19T03:29:12;99397.16;;;21.82
70819;BMP280;58439;51.046;13.692;2022-08-19T03:31:42;99400.97;;;21.76
70819;BMP280;58439;51.046;13.692;2022-08-19T03:34:25;99411.00;;;21.79
70819;BMP280;58439;51.046;13.692;2022-08-19T03:36:56;99403.03;;;21.79
70819;BMP280;58439;51.046;13.692;2022-08-19T03:39:25;99405.44;;;21.81
70819;BMP280;58439;51.046;13.692;2022-08-19T03:41:54;99404.03;;;21.83
70819;BMP280;58439;51.046;13.692;2022-08-19T03:44:44;99409.34;;;21.83
70819;BMP280;58439;51.046;13.692;2022-08-19T03:47:12;99414.78;;;21.78
70819;BMP280;58439;51.046;13.692;2022-08-19T03:49:44;99413.69;;;21.79
70819;BMP280;58439;51.046;13.692;2022-08-19T03:52:11;99412.63;;;21.80
70819;BMP280;58439;51.046;13.692;2022-08-19T03:54:39;99412.63;;;21.80
70819;BMP280;58439;51.046;13.692;2022-08-19T03:57:06;99415.28;;;21.80
70819;BMP280;58439;51.046;13.692;2022-08-19T03:59:37;99419.53;;;21.81
70819;BMP280;58439;51.046;13.692;2022-08-19T04:02:12;99418.97;;;21.84
70819;BMP280;58439;51.046;13.692;2022-08-19T04:04:42;99416.34;;;21.79
70819;BMP280;58439;51.046;13.692;2022-08-19T04:07:13;99411.00;;;21.79
70819;BMP280;58439;51.046;13.692;2022-08-19T04:09:43;99417.13;;;21.80
70819;BMP280;58439;51.046;13.692;2022-08-19T04:12:10;99407.53;;;21.84
70819;BMP280;58439;51.046;13.692;2022-08-19T04:14:37;99416.50;;;21.88
70819;BMP280;58439;51.046;13.692;2022-08-19T04:17:06;99411.97;;;21.89
70819;BMP280;58439;51.046;13.692;2022-08-19T04:19:35;99409.91;;;21.85
70819;BMP280;58439;51.046;13.692;2022-08-19T04:22:03;99399.53;;;21.84
70819;BMP280;58439;51.046;13.692;2022-08-19T04:24:31;99393.69;;;21.82
70819;BMP280;58439;51.046;13.692;2022-08-19T04:27:03;99398.38;;;21.90
70819;BMP280;58439;51.046;13.692;2022-08-19T04:29:30;99405.03;;;21.87
70819;BMP280;58439;51.046;13.692;2022-08-19T04:31:59;99410.38;;;21.87
70819;BMP280;58439;51.046;13.692;2022-08-19T04:34:37;99407.44;;;21.89
70819;BMP280;58439;51.046;13.692;2022-08-19T04:37:26;99409.25;;;21.94
70819;BMP280;58439;51.046;13.692;2022-08-19T04:40:26;99401.84;;;21.91
70819;BMP280;58439;51.046;13.692;2022-08-19T04:43:18;99405.50;;;21.95
70819;BMP280;58439;51.046;13.692;2022-08-19T04:45:46;99415.16;;;21.91
70819;BMP280;58439;51.046;13.692;2022-08-19T04:48:14;99423.84;;;21.96
70819;BMP280;58439;51.046;13.692;2022-08-19T04:50:58;99426.31;;;21.93
70819;BMP280;58439;51.046;13.692;2022-08-19T04:53:31;99427.44;;;21.86
70819;BMP280;58439;51.046;13.692;2022-08-19T04:56:12;99428.47;;;21.91
70819;BMP280;58439;51.046;13.692;2022-08-19T04:59:05;99417.88;;;21.85
70819;BMP280;58439;51.046;13.692;2022-08-19T05:01:33;99412.03;;;21.83
70819;BMP280;58439;51.046;13.692;2022-08-19T05:04:02;99410.97;;;21.84
70819;BMP280;58439;51.046;13.692;2022-08-19T05:06:32;99410.69;;;21.86
70819;BMP280;58439;51.046;13.692;2022-08-19T05:09:04;99414.03;;;21.92
70819;BMP280;58439;51.046;13.692;2022-08-19T05:11:36;99410.09;;;21.89
70819;BMP280;58439;51.046;13.692;2022-08-19T05:14:07;99423.50;;;21.84
70819;BMP280;58439;51.046;13.692;2022-08-19T05:16:35;99419.97;;;21.89
70819;BMP280;58439;51.046;13.692;2022-08-19T05:19:02;99429.00;;;21.87
70819;BMP280;58439;51.046;13.692;2022-08-19T05:21:48;99445.09;;;21.82
70819;BMP280;58439;51.046;13.692;2022-08-19T05:24:34;99455.25;;;21.75
70819;BMP280;58439;51.046;13.692;2022-08-19T05:27:02;99460.59;;;21.75
70819;BMP280;58439;51.046;13.692;2022-08-19T05:29:33;99461.56;;;21.84
70819;BMP280;58439;51.046;13.692;2022-08-19T05:32:05;99463.44;;;21.84
70819;BMP280;58439;51.046;13.692;2022-08-19T05:34:35;99463.78;;;21.77
70819;BMP280;58439;51.046;13.692;2022-08-19T05:37:05;99470.69;;;21.78
70819;BMP280;58439;51.046;13.692;2022-08-19T05:39:37;99475.94;;;21.83
70819;BMP280;58439;51.046;13.692;2022-08-19T05:42:08;99481.66;;;21.72
70819;BMP280;58439;51.046;13.692;2022-08-19T05:44:41;99483.63;;;21.66
70819;BMP280;58439;51.046;13.692;2022-08-19T05:47:13;99489.47;;;21.68
70819;BMP280;58439;51.046;13.692;2022-08-19T05:49:42;99500.91;;;21.69
70819;BMP280;58439;51.046;13.692;2022-08-19T05:52:13;99508.66;;;21.65
70819;BMP280;58439;51.046;13.692;2022-08-19T05:54:46;99512.38;;;21.64
70819;BMP280;58439;51.046;13.692;2022-08-19T05:57:20;99516.44;;;21.62
70819;BMP280;58439;51.046;13.692;2022-08-19T05:59:47;99511.91;;;21.62
70819;BMP280;58439;51.046;13.692;2022-08-19T06:02:26;99529.41;;;21.68
70819;BMP280;58439;51.046;13.692;2022-08-19T06:04:53;99534.72;;;21.68
70819;BMP280;58439;51.046;13.692;2022-08-19T06:07:21;99526.16;;;21.71
70819;BMP280;58439;51.046;13.692;2022-08-19T06:09:48;99534.91;;;21.77
70819;BMP280;58439;51.046;13.692;2022-08-19T06:12:32;99543.91;;;21.81
70819;BMP280;58439;51.046;13.692;2022-08-19T06:15:08;99557.47;;;21.79
70819;BMP280;58439;51.046;13.692;2022-08-19T06:17:36;99563.91;;;21.78
70819;BMP280;58439;51.046;13.692;2022-08-19T06:20:07;99574.03;;;21.76
70819;BMP280;58439;51.046;13.692;2022-08-19T06:22:41;99578.84;;;21.74
70819;BMP280;58439;51.046;13.692;2022-08-19T06:25:10;99577.72;;;21.80
70819;BMP280;58439;51.046;13.692;2022-08-19T06:27:37;99580.38;;;21.80
70819;BMP280;58439;51.046;13.692;2022-08-19T06:30:19;99583.56;;;21.82
70819;BMP280;58439;51.046;13.692;2022-08-19T06:32:46;99583.47;;;21.87
70819;BMP280;58439;51.046;13.692;2022-08-19T06:35:14;99584.06;;;21.84
70819;BMP280;58439;51.046;13.692;2022-08-19T06:37:46;99598.91;;;21.91
70819;BMP280;58439;51.046;13.692;2022-08-19T06:40:38;99591.88;;;22.00
70819;BMP280;58439;51.046;13.692;2022-08-19T06:43:16;99594.56;;;22.00
70819;BMP280;58439;51.046;13.692;2022-08-19T06:45:44;99606.56;;;21.97
70819;BMP280;58439;51.046;13.692;2022-08-19T06:48:13;99596.47;;;21.94
70819;BMP280;58439;51.046;13.692;2022-08-19T06:50:44;99590.53;;;22.02
70819;BMP280;58439;51.046;13.692;2022-08-19T06:53:11;99602.41;;;22.10
70819;BMP280;58439;51.046;13.692;2022-08-19T06:55:45;99607.88;;;22.00
70819;BMP280;58439;51.046;13.692;2022-08-19T06:58:21;99618.53;;;22.00
70819;BMP280;58439;51.046;13.692;2022-08-19T07:00:55;99620.22;;;21.91
70819;BMP280;58439;51.046;13.692;2022-08-19T07:03:42;99621.69;;;21.78
70819;BMP280;58439;51.046;13.692;2022-08-19T07:06:46;99623.03;;;21.75
70819;BMP280;58439;51.046;13.692;2022-08-19T07:09:58;99617.25;;;21.68
70819;BMP280;58439;51.046;13.692;2022-08-19T07:12:52;99600.06;;;21.79
70819;BMP280;58439;51.046;13.692;2022-08-19T07:15:27;99596.47;;;21.70
70819;BMP280;58439;51.046;13.692;2022-08-19T07:17:59;99595.28;;;21.58
70819;BMP280;58439;51.046;13.692;2022-08-19T07:20:41;99601.69;;;21.51
70819;BMP280;58439;51.046;13.692;2022-08-19T07:23:20;99608.84;;;21.56
70819;BMP280;58439;51.046;13.692;2022-08-19T07:26:06;99610.28;;;21.43
70819;BMP280;58439;51.046;13.692;2022-08-19T07:29:04;99623.34;;;21.40
70819;BMP280;58439;51.046;13.692;2022-08-19T07:31:47;99629.25;;;21.37
70819;BMP280;58439;51.046;13.692;2022-08-19T07:34:29;99623.44;;;21.35
70819;BMP280;58439;51.046;13.692;2022-08-19T07:37:31;99633.56;;;21.28
70819;BMP280;58439;51.046;13.692;2022-08-19T07:40:28;99638.41;;;21.26
70819;BMP280;58439;51.046;13.692;2022-08-19T07:43:04;99643.13;;;21.34
70819;BMP280;58439;51.046;13.692;2022-08-19T07:45:47;99643.13;;;21.34
70819;BMP280;58439;51.046;13.692;2022-08-19T07:48:30;99641.56;;;21.28
70819;BMP280;58439;51.046;13.692;2022-08-19T07:51:01;99633.81;;;21.31
70819;BMP280;58439;51.046;13.692;2022-08-19T07:53:31;99627.16;;;21.34
70819;BMP280;58439;51.046;13.692;2022-08-19T07:56:06;99623.94;;;21.32
70819;BMP280;58439;51.046;13.692;2022-08-19T07:58:45;99626.84;;;21.35
70819;BMP280;58439;51.046;13.692;2022-08-19T08:01:26;99625.94;;;21.50
70819;BMP280;58439;51.046;13.692;2022-08-19T08:03:57;99635.44;;;21.56
70819;BMP280;58439;51.046;13.692;2022-08-19T08:06:54;99643.06;;;21.68
70819;BMP280;58439;51.046;13.692;2022-08-19T08:09:56;99643.78;;;21.78
70819;BMP280;58439;51.046;13.692;2022-08-19T08:12:38;99647.78;;;21.76
70819;BMP280;58439;51.046;13.692;2022-08-19T08:15:33;99651.44;;;21.85
70819;BMP280;58439;51.046;13.692;2022-08-19T08:18:23;99655.47;;;21.82
70819;BMP280;58439;51.046;13.692;2022-08-19T08:21:17;99658.97;;;21.78
70819;BMP280;58439;51.046;13.692;2022-08-19T08:23:58;99659.03;;;21.68
70819;BMP280;58439;51.046;13.692;2022-08-19T08:26:30;99661.97;;;21.71
70819;BMP280;58439;51.046;13.692;2022-08-19T08:29:00;99654.75;;;21.96
70819;BMP280;58439;51.046;13.692;2022-08-19T08:31:44;99657.63;;;22.04
70819;BMP280;58439;51.046;13.692;2022-08-19T08:34:37;99661.44;;;21.98
70819;BMP280;58439;51.046;13.692;2022-08-19T08:37:29;99663.59;;;21.91
70819;BMP280;58439;51.046;13.692;2022-08-19T08:39:57;99662.13;;;21.80
70819;BMP280;58439;51.046;13.692;2022-08-19T08:43:04;99670.69;;;21.77
70819;BMP280;58439;51.046;13.692;2022-08-19T08:46:08;99673.97;;;21.64
70819;BMP280;58439;51.046;13.692;2022-08-19T08:49:02;99674.94;;;21.78
70819;BMP280;58439;51.046;13.692;2022-08-19T08:51:48;99685.63;;;22.02
70819;BMP280;58439;51.046;13.692;2022-08-19T08:54:50;99683.91;;;22.35
70819;BMP280;58439;51.046;13.692;2022-08-19T08:58:09;99676.44;;;22.98
70819;BMP280;58439;51.046;13.692;2022-08-19T09:01:12;99665.72;;;23.49
70819;BMP280;58439;51.046;13.692;2022-08-19T09:04:12;99677.25;;;23.77
70819;BMP280;58439;51.046;13.692;2022-08-19T09:10:17;99680.41;;;23.79
70819;BMP280;58439;51.046;13.692;2022-08-19T09:16:11;99676.06;;;24.11
70819;BMP280;58439;51.046;13.692;2022-08-19T09:18:52;99678.03;;;24.19
70819;BMP280;58439;51.046;13.692;2022-08-19T09:21:22;99684.38;;;24.37
70819;BMP280;58439;51.046;13.692;2022-08-19T09:23:59;99674.53;;;24.46
70819;BMP280;58439;51.046;13.692;2022-08-19T09:26:31;99671.03;;;24.73
70819;BMP280;58439;51.046;13.692;2022-08-19T09:29:24;99660.31;;;24.95
70819;BMP280;58439;51.046;13.692;2022-08-19T09:31:51;99659.72;;;25.29
70819;BMP280;58439;51.046;13.692;2022-08-19T09:34:19;99653.63;;;25.29
70819;BMP280;58439;51.046;13.692;2022-08-19T09:36:49;99642.06;;;24.97
70819;BMP280;58439;51.046;13.692;2022-08-19T09:39:21;99656.16;;;24.44
70819;BMP280;58439;51.046;13.692;2022-08-19T09:41:49;99646.31;;;24.40
70819;BMP280;58439;51.046;13.692;2022-08-19T09:44:18;99649.88;;;24.49
70819;BMP280;58439;51.046;13.692;2022-08-19T09:46:47;99637.38;;;25.03
70819;BMP280;58439;51.046;13.692;2022-08-19T09:49:17;99630.50;;;25.41
70819;BMP280;58439;51.046;13.692;2022-08-19T09:51:51;99637.09;;;25.75
70819;BMP280;58439;51.046;13.692;2022-08-19T09:54:25;99642.44;;;25.66
70819;BMP280;58439;51.046;13.692;2022-08-19T09:57:19;99644.41;;;24.99
70819;BMP280;58439;51.046;13.692;2022-08-19T10:00:07;99645.72;;;25.01
70819;BMP280;58439;51.046;13.692;2022-08-19T10:02:35;99650.78;;;25.34
70819;BMP280;58439;51.046;13.692;2022-08-19T10:05:03;99664.41;;;25.46
70819;BMP280;58439;51.046;13.692;2022-08-19T10:07:53;99655.66;;;25.01
70819;BMP280;58439;51.046;13.692;2022-08-19T10:10:23;99659.16;;;24.88
70819;BMP280;58439;51.046;13.692;2022-08-19T10:12:53;99650.38;;;25.18
70819;BMP280;58439;51.046;13.692;2022-08-19T10:15:21;99643.22;;;25.67
70819;BMP280;58439;51.046;13.692;2022-08-19T10:17:55;99641.59;;;26.05
70819;BMP280;58439;51.046;13.692;2022-08-19T10:20:24;99648.41;;;26.37
70819;BMP280;58439;51.046;13.692;2022-08-19T10:22:51;99660.09;;;26.84
70819;BMP280;58439;51.046;13.692;2022-08-19T10:25:19;99661.38;;;27.34
70819;BMP280;58439;51.046;13.692;2022-08-19T10:27:49;99673.00;;;27.55
70819;BMP280;58439;51.046;13.692;2022-08-19T10:30:17;99664.34;;;28.00
70819;BMP280;58439;51.046;13.692;2022-08-19T10:32:46;99667.69;;;28.26
70819;BMP280;58439;51.046;13.692;2022-08-19T10:35:13;99680.72;;;27.56
70819;BMP280;58439;51.046;13.692;2022-08-19T10:37:57;99674.59;;;26.40
70819;BMP280;58439;51.046;13.692;2022-08-19T10:40:30;99676.22;;;25.84
70819;BMP280;58439;51.046;13.692;2022-08-19T10:42:57;99676.22;;;25.84
70819;BMP280;58439;51.046;13.692;2022-08-19T10:45:24;99672.88;;;26.44
70819;BMP280;58439;51.046;13.692;2022-08-19T10:47:54;99673.25;;;27.62
70819;BMP280;58439;51.046;13.692;2022-08-19T10:50:25;99669.03;;;28.86
70819;BMP280;58439;51.046;13.692;2022-08-19T10:53:51;99674.38;;;29.31
70819;BMP280;58439;51.046;13.692;2022-08-19T10:56:42;99685.44;;;28.93
70819;BMP280;58439;51.046;13.692;2022-08-19T10:59:21;99693.25;;;28.53
70819;BMP280;58439;51.046;13.692;2022-08-19T11:01:58;99691.16;;;27.87
70819;BMP280;58439;51.046;13.692;2022-08-19T11:04:26;99685.53;;;27.34
70819;BMP280;58439;51.046;13.692;2022-08-19T11:06:56;99695.28;;;26.74
70819;BMP280;58439;51.046;13.692;2022-08-19T11:09:25;99706.50;;;26.50
70819;BMP280;58439;51.046;13.692;2022-08-19T11:12:00;99701.09;;;26.25
70819;BMP280;58439;51.046;13.692;2022-08-19T11:14:31;99696.47;;;25.99
70819;BMP280;58439;51.046;13.692;2022-08-19T11:17:02;99704.34;;;25.56
70819;BMP280;58439;51.046;13.692;2022-08-19T11:19:30;99703.88;;;25.32
70819;BMP280;58439;51.046;13.692;2022-08-19T11:21:58;99713.81;;;25.31
70819;BMP280;58439;51.046;13.692;2022-08-19T11:24:30;99711.22;;;25.26
70819;BMP280;58439;51.046;13.692;2022-08-19T11:27:07;99708.13;;;25.33
70819;BMP280;58439;51.046;13.692;2022-08-19T11:29:38;99708.88;;;25.25
70819;BMP280;58439;51.046;13.692;2022-08-19T11:32:09;99713.81;;;25.31
70819;BMP280;58439;51.046;13.692;2022-08-19T11:34:37;99712.22;;;25.61
70819;BMP280;58439;51.046;13.692;2022-08-19T11:37:29;99719.16;;;25.93
70819;BMP280;58439;51.046;13.692;2022-08-19T11:40:18;99723.72;;;26.01
70819;BMP280;58439;51.046;13.692;2022-08-19T11:42:56;99722.94;;;26.01
70819;BMP280;58439;51.046;13.692;2022-08-19T11:45:40;99710.75;;;26.60
70819;BMP280;58439;51.046;13.692;2022-08-19T11:48:52;99703.91;;;27.32
70819;BMP280;58439;51.046;13.692;2022-08-19T11:51:42;99708.06;;;26.34
70819;BMP280;58439;51.046;13.692;2022-08-19T11:54:14;99716.59;;;25.57
70819;BMP280;58439;51.046;13.692;2022-08-19T11:56:43;99718.66;;;25.07
70819;BMP280;58439;51.046;13.692;2022-08-19T11:59:13;99718.44;;;24.81
70819;BMP280;58439;51.046;13.692;2022-08-19T12:01:41;99722.72;;;24.82
70819;BMP280;58439;51.046;13.692;2022-08-19T12:04:10;99727.66;;;24.89
70819;BMP280;58439;51.046;13.692;2022-08-19T12:06:40;99719.66;;;24.75
70819;BMP280;58439;51.046;13.692;2022-08-19T12:09:09;99728.31;;;24.72
70819;BMP280;58439;51.046;13.692;2022-08-19T12:11:39;99728.81;;;24.60
70819;BMP280;58439;51.046;13.692;2022-08-19T12:14:10;99735.34;;;24.54
70819;BMP280;58439;51.046;13.692;2022-08-19T12:16:45;99740.72;;;24.40
70819;BMP280;58439;51.046;13.692;2022-08-19T12:19:19;99741.81;;;24.26
70819;BMP280;58439;51.046;13.692;2022-08-19T12:22:00;99741.19;;;24.42
70819;BMP280;58439;51.046;13.692;2022-08-19T12:24:33;99744.25;;;24.77
70819;BMP280;58439;51.046;13.692;2022-08-19T12:27:18;99748.16;;;24.93
70819;BMP280;58439;51.046;13.692;2022-08-19T12:30:16;99750.78;;;24.71
70819;BMP280;58439;51.046;13.692;2022-08-19T12:33:08;99752.50;;;24.53
70819;BMP280;58439;51.046;13.692;2022-08-19T12:36:07;99753.09;;;24.50
70819;BMP280;58439;51.046;13.692;2022-08-19T12:38:49;99743.38;;;24.68
70819;BMP280;58439;51.046;13.692;2022-08-19T12:41:17;99738.34;;;24.89
70819;BMP280;58439;51.046;13.692;2022-08-19T12:43:46;99747.44;;;25.01
70819;BMP280;58439;51.046;13.692;2022-08-19T12:46:33;99759.09;;;25.05
70819;BMP280;58439;51.046;13.692;2022-08-19T12:49:20;99756.84;;;24.99
70819;BMP280;58439;51.046;13.692;2022-08-19T12:52:08;99761.59;;;24.79
70819;BMP280;58439;51.046;13.692;2022-08-19T12:54:43;99767.06;;;24.61
70819;BMP280;58439;51.046;13.692;2022-08-19T12:57:23;99756.84;;;24.35
70819;BMP280;58439;51.046;13.692;2022-08-19T13:00:11;99746.78;;;24.32
70819;BMP280;58439;51.046;13.692;2022-08-19T13:02:46;99756.75;;;24.54
70819;BMP280;58439;51.046;13.692;2022-08-19T13:05:43;99753.03;;;24.77
70819;BMP280;58439;51.046;13.692;2022-08-19T13:09:05;99752.66;;;24.84
70819;BMP280;58439;51.046;13.692;2022-08-19T13:11:52;99757.25;;;24.70
70819;BMP280;58439;51.046;13.692;2022-08-19T13:14:44;99742.03;;;24.79
70819;BMP280;58439;51.046;13.692;2022-08-19T13:18:09;99746.25;;;24.58
70819;BMP280;58439;51.046;13.692;2022-08-19T13:20:39;99743.09;;;24.42
70819;BMP280;58439;51.046;13.692;2022-08-19T13:23:10;99745.94;;;24.32
70819;BMP280;58439;51.046;13.692;2022-08-19T13:28:56;99745.34;;;24.35
70819;BMP280;58439;51.046;13.692;2022-08-19T13:32:00;99751.91;;;24.29
70819;BMP280;58439;51.046;13.692;2022-08-19T13:35:05;99746.09;;;24.13
70819;BMP280;58439;51.046;13.692;2022-08-19T13:37:41;99758.88;;;23.83
70819;BMP280;58439;51.046;13.692;2022-08-19T13:40:26;99755.13;;;23.52
70819;BMP280;58439;51.046;13.692;2022-08-19T13:43:09;99755.88;;;23.39
70819;BMP280;58439;51.046;13.692;2022-08-19T13:46:25;99749.41;;;23.26
70819;BMP280;58439;51.046;13.692;2022-08-19T13:49:35;99750.63;;;23.15
70819;BMP280;58439;51.046;13.692;2022-08-19T13:52:31;99745.50;;;23.18
70819;BMP280;58439;51.046;13.692;2022-08-19T13:55:29;99743.19;;;23.31
70819;BMP280;58439;51.046;13.692;2022-08-19T13:58:21;99742.22;;;23.40
70819;BMP280;58439;51.046;13.692;2022-08-19T14:01:08;99740.97;;;23.51
70819;BMP280;58439;51.046;13.692;2022-08-19T14:04:13;99749.66;;;23.62
70819;BMP280;58439;51.046;13.692;2022-08-19T14:06:56;99751.75;;;23.65
70819;BMP280;58439;51.046;13.692;2022-08-19T14:10:03;99760.34;;;23.76
70819;BMP280;58439;51.046;13.692;2022-08-19T14:12:42;99757.97;;;23.74
70819;BMP280;58439;51.046;13.692;2022-08-19T14:15:26;99760.56;;;23.66
70819;BMP280;58439;51.046;13.692;2022-08-19T14:22:24;99751.69;;;23.33
70819;BMP280;58439;51.046;13.692;2022-08-19T14:25:37;99748.13;;;23.37
70819;BMP280;58439;51.046;13.692;2022-08-19T14:28:15;99751.41;;;23.34
70819;BMP280;58439;51.046;13.692;2022-08-19T14:30:47;99754.09;;;23.34
70819;BMP280;58439;51.046;13.692;2022-08-19T14:33:32;99756.09;;;23.24
70819;BMP280;58439;51.046;13.692;2022-08-19T14:36:13;99755.81;;;23.25
70819;BMP280;58439;51.046;13.692;2022-08-19T14:38:49;99765.28;;;23.17
70819;BMP280;58439;51.046;13.692;2022-08-19T14:41:23;99761.44;;;23.24
70819;BMP280;58439;51.046;13.692;2022-08-19T14:44:01;99757.63;;;23.30
70819;BMP280;58439;51.046;13.692;2022-08-19T14:46:43;99758.19;;;23.27
70819;BMP280;58439;51.046;13.692;2022-08-19T14:49:20;99754.59;;;23.17
70819;BMP280;58439;51.046;13.692;2022-08-19T14:52:06;99766.34;;;23.16
70819;BMP280;58439;51.046;13.692;2022-08-19T14:54:42;99766.56;;;23.20
70819;BMP280;58439;51.046;13.692;2022-08-19T14:57:29;99760.88;;;23.27
70819;BMP280;58439;51.046;13.692;2022-08-19T15:00:20;99762.53;;;23.23
70819;BMP280;58439;51.046;13.692;2022-08-19T15:03:35;99759.25;;;23.26
70819;BMP280;58439;51.046;13.692;2022-08-19T15:06:24;99759.78;;;23.46
70819;BMP280;58439;51.046;13.692;2022-08-19T15:09:01;99754.00;;;23.58
70819;BMP280;58439;51.046;13.692;2022-08-19T15:14:23;99752.44;;;23.52